Bellingham, WA (98225)

8:52 AM PDT on July 28, 2016 (GMT -0700)
Columbia -- Alexander House | | Change Station

Elev 79 ft 48.76 °N, 122.49 °W | Updated 9 seconds ago

Overcast
Overcast
66.9 °F
Feels Like 66.9 °F
N
0.0
Wind Variable Wind from West
Gusts 0.0 mph

Today
High -- | Low -- °F
--% Chance of Precip.
Yesterday
High -- | Low -- °F
Precip. -- in
Pressure 30.14 in
Visibility 10.0 miles
Clouds Overcast 700 ft
Dew Point 62 °F
Humidity 84%
Rainfall 0.00 in
Snow Depth Not available.
5:39 AM 8:52 PM
Waning Crescent, 31% visible
METAR KBLI 281453Z 15003KT 10SM OVC007 18/17 A3013 RMK AO2 SLP207 T01830167 53008
Pressure 30.14 in
Visibility 10.0 miles
Clouds Overcast 700 ft
Dew Point 62 °F
Humidity 84%
Rainfall 0.00 in
Snow Depth Not available.
5:39 AM 8:52 PM
Waning Crescent, 31% visible
METAR KBLI 281453Z 15003KT 10SM OVC007 18/17 A3013 RMK AO2 SLP207 T01830167 53008

10-Day Weather Forecast

Almanac

Astronomy

Jul. 28, 2016 Rise Set
Actual Time
Civil Twilight
Nautical Twilight
Astronomical Twilight
Moon
Length of Visible Light
Length of Day
Tomorrow will be .
, % of the Moon is Illuminated

Today's Extremes

State Highs State Lows

Community

WunderPhotos

Upload Photos

1,928,140 photos uploaded!

WunderBlog® & News

Nearby

Air Quality

  Air Quality AQ Index Pollutant
Not available.

Snow Depth

Station Depth Elevation

Earthquake Activity

City Distance Mag. Time & Date
Minimum magnitude displayed is 2.5.

Coastal Water Temperatures

Place Temperature

Stations

Nearby Weather Stations

Station Location Temp. Windchill Dew Point Humidity Wind Precip. Elev Updated Type
                   

Watches & Warnings

There are currently no watches in effect.